sensor_id;sensor_type;location;lat;lon;timestamp;pressure;altitude;pressure_sealevel;temperature;humidity
13734;BME280;43298;52.560;13.508;2022-11-28T00:01:41;101378.22;;;3.88;100.00
13734;BME280;43298;52.560;13.508;2022-11-28T00:04:08;101379.06;;;3.87;100.00
13734;BME280;43298;52.560;13.508;2022-11-28T00:06:44;101367.16;;;3.84;100.00
13734;BME280;43298;52.560;13.508;2022-11-28T00:09:12;101377.38;;;3.87;100.00
13734;BME280;43298;52.560;13.508;2022-11-28T00:11:40;101363.72;;;3.87;100.00
13734;BME280;43298;52.560;13.508;2022-11-28T00:14:06;101364.59;;;3.86;100.00
13734;BME280;43298;52.560;13.508;2022-11-28T00:16:32;101364.59;;;3.83;100.00
13734;BME280;43298;52.560;13.508;2022-11-28T00:18:59;101361.16;;;3.85;100.00
13734;BME280;43298;52.560;13.508;2022-11-28T00:21:26;101356.06;;;3.81;100.00
13734;BME280;43298;52.560;13.508;2022-11-28T00:23:52;101352.69;;;3.79;100.00
13734;BME280;43298;52.560;13.508;2022-11-28T00:26:30;101352.66;;;3.85;100.00
13734;BME280;43298;52.560;13.508;2022-11-28T00:28:57;101356.06;;;3.81;100.00
13734;BME280;43298;52.560;13.508;2022-11-28T00:31:27;101350.13;;;3.76;100.00
13734;BME280;43298;52.560;13.508;2022-11-28T00:33:53;101350.97;;;3.79;100.00
13734;BME280;43298;52.560;13.508;2022-11-28T00:36:21;101348.44;;;3.75;100.00
13734;BME280;43298;52.560;13.508;2022-11-28T00:38:48;101345.88;;;3.73;100.00
13734;BME280;43298;52.560;13.508;2022-11-28T00:41:20;101337.38;;;3.70;100.00
13734;BME280;43298;52.560;13.508;2022-11-28T00:43:48;101333.97;;;3.68;100.00
13734;BME280;43298;52.560;13.508;2022-11-28T00:46:15;101338.25;;;3.63;100.00
13734;BME280;43298;52.560;13.508;2022-11-28T00:48:42;101332.31;;;3.64;100.00
13734;BME280;43298;52.560;13.508;2022-11-28T00:51:10;101331.44;;;3.65;100.00
13734;BME280;43298;52.560;13.508;2022-11-28T00:53:38;101335.69;;;3.64;100.00
13734;BME280;43298;52.560;13.508;2022-11-28T00:56:12;101339.13;;;3.60;100.00
13734;BME280;43298;52.560;13.508;2022-11-28T00:58:39;101340.81;;;3.63;100.00
13734;BME280;43298;52.560;13.508;2022-11-28T01:01:10;101341.66;;;3.65;100.00
13734;BME280;43298;52.560;13.508;2022-11-28T01:03:37;101338.25;;;3.63;100.00
13734;BME280;43298;52.560;13.508;2022-11-28T01:06:05;101339.13;;;3.60;100.00
13734;BME280;43298;52.560;13.508;2022-11-28T01:08:31;101336.56;;;3.60;100.00
13734;BME280;43298;52.560;13.508;2022-11-28T01:10:58;101333.19;;;3.58;100.00
13734;BME280;43298;52.560;13.508;2022-11-28T01:13:24;101322.94;;;3.57;100.00
13734;BME280;43298;52.560;13.508;2022-11-28T01:15:50;101321.22;;;3.54;100.00
13734;BME280;43298;52.560;13.508;2022-11-28T01:18:16;101319.53;;;3.52;100.00
13734;BME280;43298;52.560;13.508;2022-11-28T01:20:42;101311.88;;;3.55;100.00
13734;BME280;43298;52.560;13.508;2022-11-28T01:23:07;101315.28;;;3.58;100.00
13734;BME280;43298;52.560;13.508;2022-11-28T01:25:34;101308.44;;;3.57;100.00
13734;BME280;43298;52.560;13.508;2022-11-28T01:28:01;101299.97;;;3.51;100.00
13734;BME280;43298;52.560;13.508;2022-11-28T01:30:27;101299.97;;;3.46;100.00
13734;BME280;43298;52.560;13.508;2022-11-28T01:32:53;101297.41;;;3.43;100.00
13734;BME280;43298;52.560;13.508;2022-11-28T01:35:19;101293.16;;;3.45;100.00
13734;BME280;43298;52.560;13.508;2022-11-28T01:37:45;101298.28;;;3.47;100.00
13734;BME280;43298;52.560;13.508;2022-11-28T01:40:14;101294.84;;;3.46;100.00
13734;BME280;43298;52.560;13.508;2022-11-28T01:42:41;101288.03;;;3.53;100.00
13734;BME280;43298;52.560;13.508;2022-11-28T01:45:21;101286.31;;;3.47;100.00
13734;BME280;43298;52.560;13.508;2022-11-28T01:47:51;101279.50;;;3.51;100.00
13734;BME280;43298;52.560;13.508;2022-11-28T01:50:20;101285.44;;;3.59;100.00
13734;BME280;43298;52.560;13.508;2022-11-28T01:52:50;101273.53;;;3.53;100.00
13734;BME280;43298;52.560;13.508;2022-11-28T01:55:21;101270.97;;;3.55;100.00
13734;BME280;43298;52.560;13.508;2022-11-28T01:57:48;101271.81;;;3.54;100.00
13734;BME280;43298;52.560;13.508;2022-11-28T02:00:18;101273.53;;;3.53;100.00
13734;BME280;43298;52.560;13.508;2022-11-28T02:02:53;101275.25;;;3.53;100.00
13734;BME280;43298;52.560;13.508;2022-11-28T02:05:21;101271.84;;;3.52;100.00
13734;BME280;43298;52.560;13.508;2022-11-28T02:07:47;101264.16;;;3.55;100.00
13734;BME280;43298;52.560;13.508;2022-11-28T02:10:28;101262.44;;;3.56;100.00
13734;BME280;43298;52.560;13.508;2022-11-28T02:16:30;101250.50;;;3.58;100.00
13734;BME280;43298;52.560;13.508;2022-11-28T02:28:17;101241.97;;;3.57;100.00
13734;BME280;43298;52.560;13.508;2022-11-28T02:36:22;101224.03;;;3.65;100.00
13734;BME280;43298;52.560;13.508;2022-11-28T02:39:30;101225.72;;;3.66;100.00
13734;BME280;43298;52.560;13.508;2022-11-28T02:42:36;101223.16;;;3.67;100.00
13734;BME280;43298;52.560;13.508;2022-11-28T02:48:02;101223.97;;;3.74;100.00
13734;BME280;43298;52.560;13.508;2022-11-28T02:50:39;101212.03;;;3.74;100.00
13734;BME280;43298;52.560;13.508;2022-11-28T02:53:13;101220.56;;;3.75;100.00
13734;BME280;43298;52.560;13.508;2022-11-28T02:55:42;101215.44;;;3.76;100.00
13734;BME280;43298;52.560;13.508;2022-11-28T02:58:11;101209.50;;;3.68;100.00
13734;BME280;43298;52.560;13.508;2022-11-28T03:00:40;101217.19;;;3.70;100.00
13734;BME280;43298;52.560;13.508;2022-11-28T03:03:47;101195.91;;;3.69;100.00
13734;BME280;43298;52.560;13.508;2022-11-28T03:14:54;101195.94;;;3.59;100.00
13734;BME280;43298;52.560;13.508;2022-11-28T03:21:15;101185.78;;;3.51;100.00
13734;BME280;43298;52.560;13.508;2022-11-28T03:23:51;101186.59;;;3.53;100.00
13734;BME280;43298;52.560;13.508;2022-11-28T03:26:40;101184.94;;;3.48;100.00
13734;BME280;43298;52.560;13.508;2022-11-28T03:29:23;101184.06;;;3.50;100.00
13734;BME280;43298;52.560;13.508;2022-11-28T03:32:19;101184.13;;;3.41;100.00
13734;BME280;43298;52.560;13.508;2022-11-28T03:34:53;101190.13;;;3.34;100.00
13734;BME280;43298;52.560;13.508;2022-11-28T03:37:31;101191.81;;;3.40;100.00
13734;BME280;43298;52.560;13.508;2022-11-28T03:40:04;101195.19;;;3.42;100.00
13734;BME280;43298;52.560;13.508;2022-11-28T03:42:41;101184.03;;;3.55;100.00
13734;BME280;43298;52.560;13.508;2022-11-28T03:45:25;101183.22;;;3.51;100.00
13734;BME280;43298;52.560;13.508;2022-11-28T03:48:00;101178.13;;;3.50;100.00
13734;BME280;43298;52.560;13.508;2022-11-28T03:50:43;101180.72;;;3.39;100.00
13734;BME280;43298;52.560;13.508;2022-11-28T03:53:17;101183.28;;;3.41;100.00
13734;BME280;43298;52.560;13.508;2022-11-28T03:56:01;101171.34;;;3.43;100.00
13734;BME280;43298;52.560;13.508;2022-11-28T03:58:46;101167.94;;;3.39;100.00
13734;BME280;43298;52.560;13.508;2022-11-28T04:04:51;101163.69;;;3.43;100.00
13734;BME280;43298;52.560;13.508;2022-11-28T04:08:04;101164.59;;;3.33;100.00
13734;BME280;43298;52.560;13.508;2022-11-28T04:17:09;101162.81;;;3.42;100.00
13734;BME280;43298;52.560;13.508;2022-11-28T04:19:22;101160.25;;;3.42;100.00
13734;BME280;43298;52.560;13.508;2022-11-28T04:22:22;101159.47;;;3.34;100.00
13734;BME280;43298;52.560;13.508;2022-11-28T04:25:04;101162.91;;;3.30;100.00
13734;BME280;43298;52.560;13.508;2022-11-28T04:27:40;101156.00;;;3.43;100.00
13734;BME280;43298;52.560;13.508;2022-11-28T04:30:10;101156.03;;;3.37;100.00
13734;BME280;43298;52.560;13.508;2022-11-28T04:32:43;101143.28;;;3.34;100.00
13734;BME280;43298;52.560;13.508;2022-11-28T04:35:19;101144.16;;;3.27;100.00
13734;BME280;43298;52.560;13.508;2022-11-28T04:37:47;101154.38;;;3.25;100.00
13734;BME280;43298;52.560;13.508;2022-11-28T04:40:15;101146.72;;;3.25;100.00
13734;BME280;43298;52.560;13.508;2022-11-28T04:42:54;101145.84;;;3.28;100.00
13734;BME280;43298;52.560;13.508;2022-11-28T04:45:35;101145.03;;;3.26;100.00
13734;BME280;43298;52.560;13.508;2022-11-28T04:48:03;101140.78;;;3.25;100.00
13734;BME280;43298;52.560;13.508;2022-11-28T04:50:58;101133.94;;;3.25;100.00
13734;BME280;43298;52.560;13.508;2022-11-28T04:53:47;101138.19;;;3.29;100.00
13734;BME280;43298;52.560;13.508;2022-11-28T04:56:22;101138.19;;;3.31;100.00
13734;BME280;43298;52.560;13.508;2022-11-28T04:58:51;101145.91;;;3.20;100.00
13734;BME280;43298;52.560;13.508;2022-11-28T05:01:28;101139.94;;;3.22;100.00
13734;BME280;43298;52.560;13.508;2022-11-28T05:03:55;101140.78;;;3.25;100.00
13734;BME280;43298;52.560;13.508;2022-11-28T05:06:32;101136.47;;;3.30;100.00
13734;BME280;43298;52.560;13.508;2022-11-28T05:08:58;101139.91;;;3.29;100.00
13734;BME280;43298;52.560;13.508;2022-11-28T05:11:25;101134.78;;;3.30;100.00
13734;BME280;43298;52.560;13.508;2022-11-28T05:13:52;101144.13;;;3.36;100.00
13734;BME280;43298;52.560;13.508;2022-11-28T05:16:18;101140.69;;;3.37;100.00
13734;BME280;43298;52.560;13.508;2022-11-28T05:18:45;101141.50;;;3.40;100.00
13734;BME280;43298;52.560;13.508;2022-11-28T05:21:11;101138.13;;;3.41;100.00
13734;BME280;43298;52.560;13.508;2022-11-28T05:23:39;101138.97;;;3.40;100.00
13734;BME280;43298;52.560;13.508;2022-11-28T05:26:15;101134.72;;;3.39;100.00
13734;BME280;43298;52.560;13.508;2022-11-28T05:28:49;101126.22;;;3.37;100.00
13734;BME280;43298;52.560;13.508;2022-11-28T05:31:19;101133.81;;;3.45;100.00
13734;BME280;43298;52.560;13.508;2022-11-28T05:33:46;101138.94;;;3.43;100.00
13734;BME280;43298;52.560;13.508;2022-11-28T05:36:13;101139.81;;;3.42;100.00
13734;BME280;43298;52.560;13.508;2022-11-28T05:38:39;101138.94;;;3.42;100.00
13734;BME280;43298;52.560;13.508;2022-11-28T05:41:06;101121.91;;;3.44;100.00
13734;BME280;43298;52.560;13.508;2022-11-28T05:43:32;101124.47;;;3.47;100.00
13734;BME280;43298;52.560;13.508;2022-11-28T05:45:58;101115.94;;;3.46;100.00
13734;BME280;43298;52.560;13.508;2022-11-28T05:48:24;101109.94;;;3.49;100.00
13734;BME280;43298;52.560;13.508;2022-11-28T05:50:50;101109.94;;;3.49;100.00
13734;BME280;43298;52.560;13.508;2022-11-28T05:53:18;101109.94;;;3.47;100.00
13734;BME280;43298;52.560;13.508;2022-11-28T05:55:45;101112.53;;;3.46;100.00
13734;BME280;43298;52.560;13.508;2022-11-28T05:58:12;101108.25;;;3.46;100.00
13734;BME280;43298;52.560;13.508;2022-11-28T06:00:38;101116.78;;;3.50;100.00
13734;BME280;43298;52.560;13.508;2022-11-28T06:03:04;101110.00;;;3.46;100.00
13734;BME280;43298;52.560;13.508;2022-11-28T06:05:30;101106.56;;;3.44;100.00
13734;BME280;43298;52.560;13.508;2022-11-28T06:07:56;101112.53;;;3.46;100.00
13734;BME280;43298;52.560;13.508;2022-11-28T06:10:22;101102.28;;;3.49;100.00
13734;BME280;43298;52.560;13.508;2022-11-28T06:12:48;101090.34;;;3.51;100.00
13734;BME280;43298;52.560;13.508;2022-11-28T06:15:14;101092.94;;;3.46;100.00
13734;BME280;43298;52.560;13.508;2022-11-28T06:17:40;101085.25;;;3.45;100.00
13734;BME280;43298;52.560;13.508;2022-11-28T06:20:07;101081.00;;;3.45;100.00
13734;BME280;43298;52.560;13.508;2022-11-28T06:22:33;101088.69;;;3.42;100.00
13734;BME280;43298;52.560;13.508;2022-11-28T06:24:59;101080.16;;;3.43;100.00
13734;BME280;43298;52.560;13.508;2022-11-28T06:27:25;101083.59;;;3.39;100.00
13734;BME280;43298;52.560;13.508;2022-11-28T06:29:51;101084.50;;;3.34;100.00
13734;BME280;43298;52.560;13.508;2022-11-28T06:32:16;101076.00;;;3.30;100.00
13734;BME280;43298;52.560;13.508;2022-11-28T06:34:42;101074.28;;;3.31;100.00
13734;BME280;43298;52.560;13.508;2022-11-28T06:37:08;101069.19;;;3.28;100.00
13734;BME280;43298;52.560;13.508;2022-11-28T06:39:34;101065.81;;;3.26;100.00
13734;BME280;43298;52.560;13.508;2022-11-28T06:42:01;101073.47;;;3.30;100.00
13734;BME280;43298;52.560;13.508;2022-11-28T06:44:27;101079.41;;;3.31;100.00
13734;BME280;43298;52.560;13.508;2022-11-28T06:46:53;101074.28;;;3.31;100.00
13734;BME280;43298;52.560;13.508;2022-11-28T06:49:19;101073.44;;;3.32;100.00
13734;BME280;43298;52.560;13.508;2022-11-28T06:51:45;101078.56;;;3.30;100.00
13734;BME280;43298;52.560;13.508;2022-11-28T06:54:11;101073.44;;;3.33;100.00
13734;BME280;43298;52.560;13.508;2022-11-28T06:56:41;101067.47;;;3.33;100.00
13734;BME280;43298;52.560;13.508;2022-11-28T06:59:11;101070.91;;;3.32;100.00
13734;BME280;43298;52.560;13.508;2022-11-28T07:01:37;101076.00;;;3.33;100.00
13734;BME280;43298;52.560;13.508;2022-11-28T07:04:03;101071.72;;;3.32;100.00
13734;BME280;43298;52.560;13.508;2022-11-28T07:06:29;101069.16;;;3.35;100.00
13734;BME280;43298;52.560;13.508;2022-11-28T07:08:58;101066.59;;;3.35;100.00
13734;BME280;43298;52.560;13.508;2022-11-28T07:11:30;101065.78;;;3.30;100.00
13734;BME280;43298;52.560;13.508;2022-11-28T07:14:00;101076.00;;;3.32;100.00
13734;BME280;43298;52.560;13.508;2022-11-28T07:16:29;101074.28;;;3.34;100.00
13734;BME280;43298;52.560;13.508;2022-11-28T07:18:57;101077.69;;;3.33;100.00
13734;BME280;43298;52.560;13.508;2022-11-28T07:21:23;101069.19;;;3.31;100.00
13734;BME280;43298;52.560;13.508;2022-11-28T07:23:50;101070.03;;;3.31;100.00
13734;BME280;43298;52.560;13.508;2022-11-28T07:26:18;101070.94;;;3.26;100.00
13734;BME280;43298;52.560;13.508;2022-11-28T07:28:46;101078.59;;;3.26;100.00
13734;BME280;43298;52.560;13.508;2022-11-28T07:33:42;101071.72;;;3.31;100.00
13734;BME280;43298;52.560;13.508;2022-11-28T07:36:15;101076.00;;;3.33;100.00
13734;BME280;43298;52.560;13.508;2022-11-28T07:38:41;101074.25;;;3.35;100.00
13734;BME280;43298;52.560;13.508;2022-11-28T07:41:11;101076.78;;;3.40;100.00
13734;BME280;43298;52.560;13.508;2022-11-28T07:43:39;101075.91;;;3.42;100.00
13734;BME280;43298;52.560;13.508;2022-11-28T07:46:08;101074.22;;;3.46;100.00
13734;BME280;43298;52.560;13.508;2022-11-28T07:48:35;101070.78;;;3.45;100.00
13734;BME280;43298;52.560;13.508;2022-11-28T07:51:11;101074.22;;;3.44;100.00
13734;BME280;43298;52.560;13.508;2022-11-28T07:53:37;101073.34;;;3.45;100.00
13734;BME280;43298;52.560;13.508;2022-11-28T07:56:11;101071.59;;;3.49;100.00
13734;BME280;43298;52.560;13.508;2022-11-28T07:58:41;101070.75;;;3.53;100.00
13734;BME280;43298;52.560;13.508;2022-11-28T08:01:20;101075.81;;;3.56;100.00
13734;BME280;43298;52.560;13.508;2022-11-28T08:03:46;101070.66;;;3.62;100.00
13734;BME280;43298;52.560;13.508;2022-11-28T08:06:14;101073.19;;;3.66;100.00
13734;BME280;43298;52.560;13.508;2022-11-28T08:08:41;101080.84;;;3.68;100.00
13734;BME280;43298;52.560;13.508;2022-11-28T08:11:09;101070.59;;;3.69;100.00
13734;BME280;43298;52.560;13.508;2022-11-28T08:13:36;101073.97;;;3.73;100.00
13734;BME280;43298;52.560;13.508;2022-11-28T08:16:27;101075.66;;;3.74;100.00
13734;BME280;43298;52.560;13.508;2022-11-28T08:18:55;101075.66;;;3.74;100.00
13734;BME280;43298;52.560;13.508;2022-11-28T08:21:27;101073.06;;;3.78;100.00
13734;BME280;43298;52.560;13.508;2022-11-28T08:23:56;101067.97;;;3.77;100.00
13734;BME280;43298;52.560;13.508;2022-11-28T08:26:24;101064.50;;;3.81;100.00
13734;BME280;43298;52.560;13.508;2022-11-28T08:28:51;101058.56;;;3.82;100.00
13734;BME280;43298;52.560;13.508;2022-11-28T08:31:24;101060.19;;;3.89;100.00
13734;BME280;43298;52.560;13.508;2022-11-28T08:33:52;101055.03;;;3.92;100.00
13734;BME280;43298;52.560;13.508;2022-11-28T08:36:19;101055.88;;;3.92;100.00
13734;BME280;43298;52.560;13.508;2022-11-28T08:38:46;101056.72;;;3.96;100.00
13734;BME280;43298;52.560;13.508;2022-11-28T08:41:15;101060.06;;;3.99;100.00
13734;BME280;43298;52.560;13.508;2022-11-28T08:43:42;101055.78;;;4.03;100.00
13734;BME280;43298;52.560;13.508;2022-11-28T08:46:11;101053.16;;;4.09;100.00
13734;BME280;43298;52.560;13.508;2022-11-28T08:48:39;101057.38;;;4.11;100.00
13734;BME280;43298;52.560;13.508;2022-11-28T08:51:06;101048.88;;;4.12;100.00
13734;BME280;43298;52.560;13.508;2022-11-28T08:53:32;101051.44;;;4.11;100.00
13734;BME280;43298;52.560;13.508;2022-11-28T08:55:59;101049.69;;;4.14;100.00
13734;BME280;43298;52.560;13.508;2022-11-28T08:58:25;101059.06;;;4.15;100.00
13734;BME280;43298;52.560;13.508;2022-11-28T09:00:51;101056.44;;;4.20;100.00
13734;BME280;43298;52.560;13.508;2022-11-28T09:03:19;101053.84;;;4.23;100.00
13734;BME280;43298;52.560;13.508;2022-11-28T09:05:46;101059.78;;;4.28;100.00
13734;BME280;43298;52.560;13.508;2022-11-28T09:08:13;101060.59;;;4.30;100.00
13734;BME280;43298;52.560;13.508;2022-11-28T09:10:41;101074.22;;;4.35;100.00
13734;BME280;43298;52.560;13.508;2022-11-28T09:13:07;101073.34;;;4.36;100.00
13734;BME280;43298;52.560;13.508;2022-11-28T09:15:37;101072.44;;;4.38;100.00
13734;BME280;43298;52.560;13.508;2022-11-28T09:18:03;101074.97;;;4.43;100.00
13734;BME280;43298;52.560;13.508;2022-11-28T09:20:29;101080.03;;;4.49;100.00
13734;BME280;43298;52.560;13.508;2022-11-28T09:22:55;101091.91;;;4.54;100.00
13734;BME280;43298;52.560;13.508;2022-11-28T09:25:21;101092.78;;;4.52;100.00
13734;BME280;43298;52.560;13.508;2022-11-28T09:27:46;101093.59;;;4.55;100.00
13734;BME280;43298;52.560;13.508;2022-11-28T09:30:13;101102.06;;;4.60;100.00
13734;BME280;43298;52.560;13.508;2022-11-28T09:32:38;101095.28;;;4.58;100.00
13734;BME280;43298;52.560;13.508;2022-11-28T09:35:05;101099.47;;;4.63;100.00
13734;BME280;43298;52.560;13.508;2022-11-28T09:37:30;101100.22;;;4.70;100.00
13734;BME280;43298;52.560;13.508;2022-11-28T09:39:56;101105.34;;;4.70;100.00
13734;BME280;43298;52.560;13.508;2022-11-28T09:42:40;101107.91;;;4.70;100.00
13734;BME280;43298;52.560;13.508;2022-11-28T09:45:21;101101.84;;;4.77;100.00
13734;BME280;43298;52.560;13.508;2022-11-28T09:47:59;101104.31;;;4.86;100.00
13734;BME280;43298;52.560;13.508;2022-11-28T09:50:33;101109.44;;;4.86;100.00
13734;BME280;43298;52.560;13.508;2022-11-28T09:53:29;101104.34;;;4.84;100.00
13734;BME280;43298;52.560;13.508;2022-11-28T09:56:09;101100.13;;;4.80;100.00
13734;BME280;43298;52.560;13.508;2022-11-28T09:58:50;101098.31;;;4.87;100.00
13734;BME280;43298;52.560;13.508;2022-11-28T10:01:52;101102.53;;;4.91;100.00
13734;BME280;43298;52.560;13.508;2022-11-28T10:05:05;101102.41;;;5.01;100.00
13734;BME280;43298;52.560;13.508;2022-11-28T10:08:00;101107.59;;;4.97;100.00
13734;BME280;43298;52.560;13.508;2022-11-28T10:14:06;101117.63;;;5.12;100.00
13734;BME280;43298;52.560;13.508;2022-11-28T10:16:47;101122.00;;;5.05;100.00
13734;BME280;43298;52.560;13.508;2022-11-28T10:19:26;101122.75;;;5.12;100.00
13734;BME280;43298;52.560;13.508;2022-11-28T10:21:58;101129.56;;;5.14;100.00
13734;BME280;43298;52.560;13.508;2022-11-28T10:24:36;101122.66;;;5.21;100.00
13734;BME280;43298;52.560;13.508;2022-11-28T10:27:05;101121.78;;;5.22;100.00
13734;BME280;43298;52.560;13.508;2022-11-28T10:29:58;101119.09;;;5.31;100.00
13734;BME280;43298;52.560;13.508;2022-11-28T10:32:39;101115.50;;;5.41;100.00
13734;BME280;43298;52.560;13.508;2022-11-28T10:35:32;101124.81;;;5.48;100.00
13734;BME280;43298;52.560;13.508;2022-11-28T10:38:01;101130.78;;;5.50;100.00
13734;BME280;43298;52.560;13.508;2022-11-28T10:49:08;101123.78;;;5.58;100.00
13734;BME280;43298;52.560;13.508;2022-11-28T10:54:38;101119.63;;;5.51;100.00
13734;BME280;43298;52.560;13.508;2022-11-28T10:57:41;101110.84;;;5.67;100.00
13734;BME280;43298;52.560;13.508;2022-11-28T11:00:15;101107.44;;;5.65;100.00
13734;BME280;43298;52.560;13.508;2022-11-28T11:02:53;101109.19;;;5.63;100.00
13734;BME280;43298;52.560;13.508;2022-11-28T11:05:31;101114.34;;;5.63;100.00
13734;BME280;43298;52.560;13.508;2022-11-28T11:08:20;101106.59;;;5.64;100.00
13734;BME280;43298;52.560;13.508;2022-11-28T11:14:02;101105.81;;;5.59;100.00
13734;BME280;43298;52.560;13.508;2022-11-28T11:16:48;101105.84;;;5.58;100.00
13734;BME280;43298;52.560;13.508;2022-11-28T11:19:36;101103.19;;;5.64;100.00
13734;BME280;43298;52.560;13.508;2022-11-28T11:22:24;101100.63;;;5.64;100.00
13734;BME280;43298;52.560;13.508;2022-11-28T11:27:45;101096.19;;;5.73;100.00
13734;BME280;43298;52.560;13.508;2022-11-28T11:30:30;101102.94;;;5.82;100.00
13734;BME280;43298;52.560;13.508;2022-11-28T11:32:58;101089.19;;;5.84;100.00
13734;BME280;43298;52.560;13.508;2022-11-28T11:35:35;101091.75;;;5.86;100.00
13734;BME280;43298;52.560;13.508;2022-11-28T11:40:49;101088.94;;;5.98;100.00
13734;BME280;43298;52.560;13.508;2022-11-28T11:46:12;101088.69;;;6.14;100.00
13734;BME280;43298;52.560;13.508;2022-11-28T11:48:47;101085.19;;;6.18;100.00
13734;BME280;43298;52.560;13.508;2022-11-28T11:51:28;101091.19;;;6.16;100.00
13734;BME280;43298;52.560;13.508;2022-11-28T11:56:37;101097.84;;;6.26;100.00
13734;BME280;43298;52.560;13.508;2022-11-28T11:59:21;101092.84;;;6.20;100.00
13734;BME280;43298;52.560;13.508;2022-11-28T12:01:56;101087.63;;;6.23;100.00
13734;BME280;43298;52.560;13.508;2022-11-28T12:04:48;101096.06;;;6.31;100.00
13734;BME280;43298;52.560;13.508;2022-11-28T12:10:24;101079.84;;;6.28;100.00
13734;BME280;43298;52.560;13.508;2022-11-28T12:12:52;101080.88;;;6.19;100.00
13734;BME280;43298;52.560;13.508;2022-11-28T12:15:54;101073.13;;;6.22;100.00
13734;BME280;43298;52.560;13.508;2022-11-28T12:21:12;101070.63;;;6.17;100.00
13734;BME280;43298;52.560;13.508;2022-11-28T12:24:07;101068.88;;;6.21;100.00
13734;BME280;43298;52.560;13.508;2022-11-28T12:27:05;101057.88;;;6.14;100.00
13734;BME280;43298;52.560;13.508;2022-11-28T12:36:40;101042.22;;;5.81;100.00
13734;BME280;43298;52.560;13.508;2022-11-28T12:53:52;101006.91;;;5.45;100.00
13734;BME280;43298;52.560;13.508;2022-11-28T13:02:24;101005.16;;;5.47;100.00
13734;BME280;43298;52.560;13.508;2022-11-28T13:11:00;101002.63;;;5.44;100.00
13734;BME280;43298;52.560;13.508;2022-11-28T13:13:49;100999.34;;;5.37;100.00
13734;BME280;43298;52.560;13.508;2022-11-28T13:16:50;101000.19;;;5.38;100.00
13734;BME280;43298;52.560;13.508;2022-11-28T13:19:42;100997.69;;;5.33;100.00
13734;BME280;43298;52.560;13.508;2022-11-28T13:22:24;100995.09;;;5.35;100.00
13734;BME280;43298;52.560;13.508;2022-11-28T13:25:22;100995.09;;;5.35;100.00
13734;BME280;43298;52.560;13.508;2022-11-28T13:28:35;100987.47;;;5.32;100.00
13734;BME280;43298;52.560;13.508;2022-11-28T13:31:32;100983.25;;;5.29;100.00
13734;BME280;43298;52.560;13.508;2022-11-28T13:34:00;100986.75;;;5.24;100.00
13734;BME280;43298;52.560;13.508;2022-11-28T13:36:47;100985.97;;;5.17;100.00
13734;BME280;43298;52.560;13.508;2022-11-28T13:39:28;100983.50;;;5.13;100.00
13734;BME280;43298;52.560;13.508;2022-11-28T13:42:10;100980.16;;;5.08;100.00
13734;BME280;43298;52.560;13.508;2022-11-28T13:44:56;100979.28;;;5.07;100.00
13734;BME280;43298;52.560;13.508;2022-11-28T13:47:30;100978.50;;;5.05;100.00
13734;BME280;43298;52.560;13.508;2022-11-28T13:55:41;100977.84;;;4.93;100.00
13734;BME280;43298;52.560;13.508;2022-11-28T14:01:19;100977.16;;;4.82;100.00
13734;BME280;43298;52.560;13.508;2022-11-28T14:03:48;100973.75;;;4.80;100.00
13734;BME280;43298;52.560;13.508;2022-11-28T14:09:18;100972.13;;;4.73;100.00
13734;BME280;43298;52.560;13.508;2022-11-28T14:18:00;100968.81;;;4.68;100.00
13734;BME280;43298;52.560;13.508;2022-11-28T14:20:53;100958.59;;;4.65;100.00
13734;BME280;43298;52.560;13.508;2022-11-28T14:23:25;100965.41;;;4.66;100.00
13734;BME280;43298;52.560;13.508;2022-11-28T14:25:53;100966.31;;;4.62;100.00
13734;BME280;43298;52.560;13.508;2022-11-28T14:28:33;100962.13;;;4.58;100.00
13734;BME280;43298;52.560;13.508;2022-11-28T14:31:34;100962.16;;;4.55;100.00
13734;BME280;43298;52.560;13.508;2022-11-28T14:34:34;100957.06;;;4.53;100.00
13734;BME280;43298;52.560;13.508;2022-11-28T14:37:35;100966.47;;;4.51;100.00
13734;BME280;43298;52.560;13.508;2022-11-28T14:43:46;100963.97;;;4.47;100.00
13734;BME280;43298;52.560;13.508;2022-11-28T14:46:25;100958.09;;;4.40;100.00
13734;BME280;43298;52.560;13.508;2022-11-28T14:54:29;100953.09;;;4.31;100.00
13734;BME280;43298;52.560;13.508;2022-11-28T14:56:57;100961.69;;;4.27;100.00
13734;BME280;43298;52.560;13.508;2022-11-28T14:59:29;100962.59;;;4.22;100.00
13734;BME280;43298;52.560;13.508;2022-11-28T15:10:29;100959.31;;;4.12;100.00
13734;BME280;43298;52.560;13.508;2022-11-28T15:15:49;100955.91;;;4.12;100.00
13734;BME280;43298;52.560;13.508;2022-11-28T15:18:17;100953.38;;;4.07;100.00
13734;BME280;43298;52.560;13.508;2022-11-28T15:20:55;100960.16;;;4.11;100.00
13734;BME280;43298;52.560;13.508;2022-11-28T15:23:33;100957.66;;;4.07;100.00
13734;BME280;43298;52.560;13.508;2022-11-28T15:26:01;100957.66;;;4.07;100.00
13734;BME280;43298;52.560;13.508;2022-11-28T15:28:29;100956.03;;;4.03;100.00
13734;BME280;43298;52.560;13.508;2022-11-28T15:31:00;100955.19;;;4.01;100.00
13734;BME280;43298;52.560;13.508;2022-11-28T15:33:28;100958.56;;;4.03;100.00
13734;BME280;43298;52.560;13.508;2022-11-28T15:36:07;100966.25;;;4.03;100.00
13734;BME280;43298;52.560;13.508;2022-11-28T15:38:42;100970.53;;;3.99;100.00
13734;BME280;43298;52.560;13.508;2022-11-28T15:41:08;100962.06;;;3.96;100.00
13734;BME280;43298;52.560;13.508;2022-11-28T15:43:37;100962.88;;;3.98;100.00
13734;BME280;43298;52.560;13.508;2022-11-28T15:46:21;100969.75;;;3.96;100.00